createdAt,value
2023-03-26T00:01:46.437Z,16.42
2023-03-26T00:04:14.285Z,13.70
2023-03-26T00:06:42.005Z,14.10
2023-03-26T00:09:13.248Z,14.03
2023-03-26T00:11:41.304Z,13.03
2023-03-26T00:14:13.832Z,22.83
2023-03-26T00:16:43.322Z,17.27
2023-03-26T00:19:11.855Z,12.93
2023-03-26T00:21:39.894Z,14.27
2023-03-26T00:24:10.150Z,21.60
2023-03-26T00:26:38.907Z,18.03
2023-03-26T00:31:35.685Z,16.55
2023-03-26T00:36:35.746Z,16.60
2023-03-26T00:39:05.527Z,19.60
2023-03-26T00:41:36.867Z,23.93
2023-03-26T00:44:04.833Z,18.30
2023-03-26T00:46:32.837Z,14.60
2023-03-26T00:49:03.804Z,13.73
2023-03-26T00:51:35.052Z,17.50
2023-03-26T00:54:02.769Z,15.00
2023-03-26T00:56:30.792Z,17.57
2023-03-26T00:59:00.178Z,13.02
2023-03-26T01:01:30.318Z,15.83
2023-03-26T01:04:08.846Z,13.07
2023-03-26T01:06:42.085Z,19.00
2023-03-26T01:09:16.046Z,17.20
2023-03-26T01:11:44.863Z,19.80
2023-03-26T01:16:46.034Z,12.80
2023-03-26T01:19:20.678Z,12.23
2023-03-26T01:21:50.181Z,12.27
2023-03-26T01:24:19.317Z,14.67
2023-03-26T01:27:06.016Z,14.33
2023-03-26T01:29:42.733Z,19.77
2023-03-26T01:32:23.048Z,15.23
2023-03-26T01:35:12.431Z,16.93
2023-03-26T01:37:52.581Z,14.00
2023-03-26T01:40:27.572Z,14.63
2023-03-26T01:43:01.256Z,15.00
2023-03-26T01:45:33.096Z,19.53
2023-03-26T01:48:01.364Z,21.00
2023-03-26T01:50:29.231Z,18.77
2023-03-26T01:52:57.070Z,14.80
2023-03-26T01:55:31.749Z,13.13
2023-03-26T01:58:08.444Z,22.47
2023-03-26T02:00:43.431Z,17.70
2023-03-26T02:03:23.972Z,18.20
2023-03-26T02:05:57.916Z,11.13
2023-03-26T02:08:35.207Z,17.37
2023-03-26T02:11:11.521Z,17.83
2023-03-26T02:13:39.951Z,21.93
2023-03-26T02:16:11.658Z,16.08
2023-03-26T02:18:39.660Z,18.43
2023-03-26T02:21:11.020Z,14.73
2023-03-26T02:23:40.332Z,18.57
2023-03-26T02:26:11.397Z,20.33
2023-03-26T02:28:39.770Z,18.67
2023-03-26T02:31:09.710Z,20.02
2023-03-26T02:33:37.868Z,17.93
2023-03-26T02:36:08.383Z,12.73
2023-03-26T02:38:36.527Z,15.33
2023-03-26T02:41:05.450Z,17.83
2023-03-26T02:46:02.366Z,13.00
2023-03-26T02:48:31.323Z,18.52
2023-03-26T02:50:59.025Z,18.90
2023-03-26T02:53:29.729Z,22.50
2023-03-26T02:55:58.043Z,21.93
2023-03-26T02:58:26.399Z,19.95
2023-03-26T03:00:56.166Z,18.55
2023-03-26T03:03:24.502Z,25.83
2023-03-26T03:05:52.560Z,21.40
2023-03-26T03:08:21.457Z,20.88
2023-03-26T03:10:58.014Z,24.65
2023-03-26T03:13:25.763Z,22.23
2023-03-26T03:15:56.089Z,25.57
2023-03-26T03:18:24.106Z,22.30
2023-03-26T03:20:52.123Z,19.33
2023-03-26T03:23:19.932Z,20.45
2023-03-26T03:25:48.747Z,20.37
2023-03-26T03:30:47.088Z,23.37
2023-03-26T03:33:16.242Z,28.73
2023-03-26T03:35:45.972Z,23.13
2023-03-26T03:38:13.787Z,32.80
2023-03-26T03:40:41.524Z,21.83
2023-03-26T03:43:09.266Z,25.03
2023-03-26T03:45:37.049Z,26.63
2023-03-26T03:48:05.089Z,27.27
2023-03-26T03:50:35.840Z,27.17
2023-03-26T03:53:05.631Z,28.60
2023-03-26T03:55:33.456Z,23.83
2023-03-26T03:58:01.514Z,31.83
2023-03-26T04:00:30.706Z,43.50
2023-03-26T04:02:58.790Z,52.10
2023-03-26T04:05:26.616Z,49.63
2023-03-26T04:07:55.778Z,49.40
2023-03-26T04:10:23.523Z,49.47
2023-03-26T04:12:51.256Z,53.80
2023-03-26T04:15:19.054Z,61.60
2023-03-26T04:17:46.784Z,61.67
2023-03-26T04:20:15.961Z,62.90
2023-03-26T04:22:44.061Z,60.13
2023-03-26T04:25:15.538Z,52.90
2023-03-26T04:27:44.136Z,56.83
2023-03-26T04:30:16.606Z,58.70
2023-03-26T04:32:44.700Z,54.63
2023-03-26T04:35:15.143Z,52.17
2023-03-26T04:37:44.440Z,74.63
2023-03-26T04:40:18.374Z,54.53
2023-03-26T04:42:46.535Z,54.70
2023-03-26T04:45:15.768Z,49.47
2023-03-26T04:47:43.560Z,53.93
2023-03-26T04:50:12.665Z,59.20
2023-03-26T04:52:41.624Z,54.30
2023-03-26T04:55:24.870Z,52.57
2023-03-26T04:57:56.811Z,45.97
2023-03-26T05:00:24.730Z,57.53
2023-03-26T05:02:55.877Z,32.28
2023-03-26T05:05:23.927Z,41.57
2023-03-26T05:07:51.632Z,46.92
2023-03-26T05:10:21.417Z,43.17
2023-03-26T05:12:49.732Z,50.87
2023-03-26T05:15:17.529Z,45.30
2023-03-26T05:17:46.365Z,46.43
2023-03-26T05:20:20.888Z,43.83
2023-03-26T05:22:49.420Z,38.60
2023-03-26T05:25:18.100Z,37.33
2023-03-26T05:27:47.475Z,33.30
2023-03-26T05:30:16.787Z,37.40
2023-03-26T05:32:45.182Z,39.67
2023-03-26T05:35:15.352Z,37.70
2023-03-26T05:37:44.490Z,32.43
2023-03-26T05:40:14.700Z,48.00
2023-03-26T05:42:42.880Z,47.37
2023-03-26T05:45:13.917Z,31.90
2023-03-26T05:47:41.858Z,43.67
2023-03-26T05:50:11.205Z,57.15
2023-03-26T05:52:39.276Z,42.60
2023-03-26T05:55:08.145Z,56.85
2023-03-26T05:57:36.751Z,41.07
2023-03-26T06:00:07.677Z,54.75
2023-03-26T06:02:36.987Z,44.40
2023-03-26T06:05:05.486Z,56.70
2023-03-26T06:07:34.019Z,41.42
2023-03-26T06:10:02.730Z,44.05
2023-03-26T06:12:30.427Z,49.28
2023-03-26T06:14:58.054Z,46.20
2023-03-26T06:17:25.715Z,48.67
2023-03-26T06:19:54.799Z,48.33
2023-03-26T06:22:22.603Z,46.13
2023-03-26T06:24:50.247Z,51.20
2023-03-26T06:27:17.889Z,60.07
2023-03-26T06:29:45.631Z,51.77
2023-03-26T06:32:19.769Z,55.87
2023-03-26T06:34:48.461Z,47.90
2023-03-26T06:37:17.994Z,53.50
2023-03-26T06:39:46.009Z,51.63
2023-03-26T06:42:13.936Z,63.17
2023-03-26T06:44:41.681Z,47.13
2023-03-26T06:47:09.417Z,42.00
2023-03-26T06:49:38.285Z,61.23
2023-03-26T06:52:06.215Z,70.07
2023-03-26T06:54:35.352Z,63.78
2023-03-26T06:57:03.202Z,71.80
2023-03-26T06:59:31.236Z,74.18
2023-03-26T07:01:58.971Z,69.68
2023-03-26T07:04:26.749Z,72.53
2023-03-26T07:06:54.903Z,74.03
2023-03-26T07:09:22.951Z,76.35
2023-03-26T07:11:52.065Z,57.17
2023-03-26T07:14:19.710Z,84.07
2023-03-26T07:16:47.432Z,74.13
2023-03-26T07:19:15.179Z,72.40
2023-03-26T07:21:43.492Z,86.17
2023-03-26T07:24:13.781Z,92.50
2023-03-26T07:26:51.744Z,110.00
2023-03-26T07:29:31.944Z,109.35
2023-03-26T07:32:09.455Z,106.70
2023-03-26T07:34:50.240Z,109.03
2023-03-26T07:37:29.394Z,87.27
2023-03-26T07:40:03.429Z,82.47
2023-03-26T07:42:49.711Z,79.50
2023-03-26T07:45:27.225Z,77.60
2023-03-26T07:47:57.008Z,69.90
2023-03-26T07:50:26.381Z,61.63
2023-03-26T07:52:54.768Z,52.73
2023-03-26T07:55:23.030Z,45.88
2023-03-26T07:58:00.372Z,37.45
2023-03-26T08:00:35.349Z,41.00
2023-03-26T08:03:38.417Z,44.33
2023-03-26T08:06:16.503Z,39.37
2023-03-26T08:08:54.446Z,40.50
2023-03-26T08:11:35.703Z,40.08
2023-03-26T08:14:16.251Z,29.17
2023-03-26T08:16:52.035Z,28.63
2023-03-26T08:19:40.751Z,32.30
2023-03-26T08:22:15.503Z,37.03
2023-03-26T08:24:53.834Z,29.37
2023-03-26T08:27:29.578Z,31.50
2023-03-26T08:30:04.240Z,26.93
2023-03-26T08:32:34.299Z,25.73
2023-03-26T08:35:05.048Z,28.40
2023-03-26T08:37:32.712Z,26.33
2023-03-26T08:40:00.708Z,21.30
2023-03-26T08:43:19.184Z,24.73
2023-03-26T08:46:12.162Z,24.03
2023-03-26T08:49:17.021Z,23.80
2023-03-26T08:51:59.769Z,27.60
2023-03-26T08:54:49.485Z,24.27
2023-03-26T08:57:41.069Z,21.10
2023-03-26T09:00:36.552Z,28.27
2023-03-26T09:03:32.583Z,21.87
2023-03-26T09:06:35.053Z,16.00
2023-03-26T09:09:41.617Z,21.30
2023-03-26T09:12:36.423Z,17.33
2023-03-26T09:15:36.655Z,18.27
2023-03-26T09:18:36.953Z,17.10
2023-03-26T09:21:30.545Z,16.50
2023-03-26T09:24:37.685Z,21.00
2023-03-26T09:27:16.332Z,20.07
2023-03-26T09:30:31.580Z,16.70
2023-03-26T09:33:32.837Z,20.93
2023-03-26T09:36:31.925Z,16.73
2023-03-26T09:39:08.953Z,17.27
2023-03-26T09:41:43.657Z,22.73
2023-03-26T09:44:39.247Z,17.90
2023-03-26T09:47:37.466Z,17.53
2023-03-26T09:50:24.730Z,24.42
2023-03-26T09:53:05.314Z,23.47
2023-03-26T09:56:00.446Z,19.87
2023-03-26T09:58:42.940Z,15.57
2023-03-26T10:01:18.357Z,24.97
2023-03-26T10:04:14.906Z,18.13
2023-03-26T10:06:54.177Z,19.60
2023-03-26T10:09:39.391Z,17.73
2023-03-26T10:12:13.924Z,20.57
2023-03-26T10:14:47.580Z,24.57
2023-03-26T10:17:33.649Z,19.00
2023-03-26T10:20:20.954Z,16.60
2023-03-26T10:22:57.616Z,24.90
2023-03-26T10:25:56.305Z,23.50
2023-03-26T10:28:40.777Z,18.60
2023-03-26T10:31:27.218Z,21.53
2023-03-26T10:34:06.332Z,21.50
2023-03-26T10:36:36.670Z,20.43
2023-03-26T10:39:38.026Z,20.03
2023-03-26T10:42:23.046Z,21.40
2023-03-26T10:45:15.467Z,19.77
2023-03-26T10:47:58.306Z,14.27
2023-03-26T10:50:41.932Z,19.40
2023-03-26T10:53:19.259Z,22.93
2023-03-26T10:55:53.009Z,17.80
2023-03-26T10:58:26.452Z,14.53
2023-03-26T11:01:00.737Z,18.20
2023-03-26T11:03:46.948Z,14.73
2023-03-26T11:06:26.504Z,19.87
2023-03-26T11:09:04.165Z,21.67
2023-03-26T11:11:38.494Z,19.10
2023-03-26T11:14:24.317Z,19.07
2023-03-26T11:17:03.963Z,22.37
2023-03-26T11:19:40.345Z,19.43
2023-03-26T11:22:18.740Z,19.43
2023-03-26T11:25:21.088Z,14.55
2023-03-26T11:28:01.641Z,19.63
2023-03-26T11:30:42.754Z,21.17
2023-03-26T11:33:14.147Z,22.17
2023-03-26T11:35:46.844Z,15.53
2023-03-26T11:38:20.755Z,12.43
2023-03-26T11:40:51.567Z,15.90
2023-03-26T11:43:23.243Z,13.57
2023-03-26T11:45:54.031Z,21.30
2023-03-26T11:48:28.638Z,13.30
2023-03-26T11:51:03.015Z,19.40
2023-03-26T11:53:34.564Z,16.00
2023-03-26T11:56:08.088Z,14.27
2023-03-26T11:58:43.755Z,15.77
2023-03-26T12:01:17.803Z,16.63
2023-03-26T12:03:57.243Z,16.37
2023-03-26T12:06:27.495Z,14.10
2023-03-26T12:08:56.866Z,14.90
2023-03-26T12:11:28.205Z,17.23
2023-03-26T12:14:00.308Z,14.40
2023-03-26T12:16:29.983Z,11.60
2023-03-26T12:19:04.119Z,12.90
2023-03-26T12:21:46.022Z,10.60
2023-03-26T12:24:28.051Z,15.77
2023-03-26T12:27:02.025Z,15.77
2023-03-26T12:29:34.310Z,13.53
2023-03-26T12:32:14.390Z,14.93
2023-03-26T12:34:42.745Z,12.93
2023-03-26T12:37:35.069Z,15.00
2023-03-26T12:40:27.136Z,15.43
2023-03-26T12:44:48.827Z,20.97
2023-03-26T12:45:44.773Z,13.97
2023-03-26T12:48:16.808Z,18.50
2023-03-26T12:50:57.318Z,19.50
2023-03-26T12:53:38.913Z,17.47
2023-03-26T12:56:19.742Z,16.40
2023-03-26T12:59:03.909Z,14.40
2023-03-26T13:01:45.711Z,14.30
2023-03-26T13:04:51.895Z,18.07
2023-03-26T13:07:35.143Z,13.03
2023-03-26T13:10:26.625Z,11.10
2023-03-26T13:13:09.840Z,9.10
2023-03-26T13:15:44.124Z,14.10
2023-03-26T13:18:24.213Z,13.13
2023-03-26T13:20:59.469Z,10.00
2023-03-26T13:23:46.049Z,12.67
2023-03-26T13:26:26.912Z,11.37
2023-03-26T13:29:06.905Z,13.00
2023-03-26T13:31:41.180Z,10.30
2023-03-26T13:34:19.505Z,11.00
2023-03-26T13:37:00.481Z,12.13
2023-03-26T13:39:36.117Z,11.57
2023-03-26T13:42:18.218Z,10.73
2023-03-26T13:45:05.072Z,12.63
2023-03-26T13:47:36.611Z,14.50
2023-03-26T13:50:15.450Z,16.27
2023-03-26T13:52:49.258Z,13.93
2023-03-26T13:55:26.319Z,13.30
2023-03-26T13:58:03.067Z,11.77
2023-03-26T14:00:54.480Z,8.30
2023-03-26T14:03:30.072Z,7.10
2023-03-26T14:06:05.650Z,9.43
2023-03-26T14:08:38.936Z,11.80
2023-03-26T14:11:12.389Z,11.87
2023-03-26T14:13:47.420Z,13.30
2023-03-26T14:16:19.397Z,12.43
2023-03-26T14:18:53.319Z,9.50
2023-03-26T14:21:36.580Z,7.70
2023-03-26T14:24:24.647Z,10.00
2023-03-26T14:27:05.540Z,8.20
2023-03-26T14:29:56.304Z,8.47
2023-03-26T14:33:01.176Z,9.77
2023-03-26T14:35:37.768Z,9.10
2023-03-26T14:38:33.898Z,10.30
2023-03-26T14:41:20.975Z,8.90
2023-03-26T14:44:18.221Z,10.87
2023-03-26T14:47:14.518Z,12.73
2023-03-26T14:50:20.566Z,11.05
2023-03-26T14:52:50.400Z,10.00
2023-03-26T14:55:33.814Z,11.00
2023-03-26T14:58:27.827Z,9.83
2023-03-26T15:01:18.620Z,8.43
2023-03-26T15:04:21.299Z,12.50
2023-03-26T15:07:33.958Z,11.03
2023-03-26T15:10:16.855Z,9.30
2023-03-26T15:12:58.941Z,10.13
2023-03-26T15:15:54.378Z,9.83
2023-03-26T15:18:52.990Z,14.60
2023-03-26T15:21:43.268Z,11.65
2023-03-26T15:25:04.162Z,10.57
2023-03-26T15:27:54.948Z,9.37
2023-03-26T15:30:57.875Z,6.77
2023-03-26T15:34:12.133Z,13.33
2023-03-26T15:37:17.717Z,8.50
2023-03-26T15:40:12.775Z,10.73
2023-03-26T15:42:54.359Z,12.97
2023-03-26T15:45:37.823Z,9.13
2023-03-26T15:48:44.223Z,11.43
2023-03-26T15:51:47.295Z,14.10
2023-03-26T15:54:24.105Z,8.30
2023-03-26T15:57:07.166Z,9.77
2023-03-26T15:59:44.260Z,13.67
2023-03-26T16:02:26.366Z,7.23
2023-03-26T16:04:55.849Z,7.40
2023-03-26T16:07:41.392Z,9.73
2023-03-26T16:10:28.034Z,10.17
2023-03-26T16:13:12.705Z,6.50
2023-03-26T16:15:41.449Z,10.37
2023-03-26T16:23:47.789Z,11.10
2023-03-26T16:26:20.792Z,13.17
2023-03-26T16:29:15.858Z,10.30
2023-03-26T16:32:05.827Z,13.50
2023-03-26T16:34:42.146Z,9.63
2023-03-26T16:37:40.878Z,13.13
2023-03-26T16:40:50.208Z,9.20
2023-03-26T16:43:42.378Z,9.67
2023-03-26T16:46:25.017Z,9.70
2023-03-26T16:48:59.737Z,10.33
2023-03-26T16:51:43.642Z,9.00
2023-03-26T16:54:22.115Z,5.17
2023-03-26T16:56:56.455Z,6.07
2023-03-26T17:00:05.469Z,12.43
2023-03-26T17:02:51.304Z,9.70
2023-03-26T17:05:25.338Z,11.13
2023-03-26T17:08:02.768Z,9.83
2023-03-26T17:10:40.053Z,8.43
2023-03-26T17:13:12.352Z,9.03
2023-03-26T17:15:49.298Z,5.73
2023-03-26T17:18:37.652Z,9.17
2023-03-26T17:21:12.051Z,11.43
2023-03-26T17:24:01.237Z,4.00
2023-03-26T17:26:42.228Z,9.40
2023-03-26T17:29:25.058Z,7.87
2023-03-26T17:31:59.267Z,12.40
2023-03-26T17:34:40.298Z,7.30
2023-03-26T17:37:11.846Z,9.93
2023-03-26T17:40:36.760Z,6.30
2023-03-26T17:43:11.097Z,5.33
2023-03-26T17:45:40.754Z,5.33
2023-03-26T17:48:16.775Z,6.90
2023-03-26T17:50:51.681Z,11.50
2023-03-26T17:53:24.449Z,12.77
2023-03-26T17:55:53.390Z,8.00
2023-03-26T17:58:30.101Z,7.80
2023-03-26T18:01:06.625Z,6.70
2023-03-26T18:03:39.154Z,6.50
2023-03-26T18:06:10.636Z,9.43
2023-03-26T18:08:49.572Z,5.47
2023-03-26T18:11:38.171Z,8.27
2023-03-26T18:16:52.490Z,8.60
2023-03-26T18:19:22.957Z,7.60
2023-03-26T18:21:54.726Z,12.63
2023-03-26T18:24:25.517Z,7.03
2023-03-26T18:27:00.096Z,11.10
2023-03-26T18:29:31.079Z,8.67
2023-03-26T18:32:02.615Z,8.10
2023-03-26T18:34:32.618Z,13.67
2023-03-26T18:37:17.735Z,7.83
2023-03-26T18:39:58.978Z,6.23
2023-03-26T18:42:28.064Z,8.23
2023-03-26T18:45:00.853Z,7.70
2023-03-26T18:47:32.729Z,4.57
2023-03-26T18:50:01.163Z,9.17
2023-03-26T18:52:31.223Z,7.28
2023-03-26T18:55:00.099Z,6.97
2023-03-26T18:57:29.729Z,7.40
2023-03-26T19:00:09.873Z,12.03
2023-03-26T19:02:40.023Z,11.03
2023-03-26T19:05:13.804Z,7.40
2023-03-26T19:07:41.963Z,6.60
2023-03-26T19:10:18.555Z,7.40
2023-03-26T19:12:47.263Z,5.80
2023-03-26T19:15:17.357Z,7.55
2023-03-26T19:17:50.800Z,8.67
2023-03-26T19:20:22.658Z,10.37
2023-03-26T19:22:51.406Z,12.83
2023-03-26T19:27:51.697Z,6.10
2023-03-26T19:30:30.136Z,7.00
2023-03-26T19:33:12.246Z,5.93
2023-03-26T19:35:42.488Z,6.30
2023-03-26T19:38:27.128Z,7.90
2023-03-26T19:40:56.880Z,10.33
2023-03-26T19:43:26.247Z,6.97
2023-03-26T19:48:49.038Z,14.13
2023-03-26T19:51:18.410Z,10.70
2023-03-26T19:51:21.749Z,8.77
2023-03-26T19:53:54.181Z,5.97
2023-03-26T19:56:22.886Z,9.23
2023-03-26T19:58:51.337Z,7.70
2023-03-26T20:01:21.455Z,8.52
2023-03-26T20:03:52.855Z,7.70
2023-03-26T20:06:30.620Z,8.87
2023-03-26T20:09:06.080Z,7.63
2023-03-26T20:11:37.990Z,12.65
2023-03-26T20:14:13.551Z,7.07
2023-03-26T20:16:43.825Z,10.97
2023-03-26T20:19:14.879Z,7.00
2023-03-26T20:21:44.227Z,7.40
2023-03-26T20:24:14.638Z,9.33
2023-03-26T20:26:42.820Z,9.03
2023-03-26T20:29:11.737Z,6.65
2023-03-26T20:31:41.516Z,9.27
2023-03-26T20:34:19.938Z,9.90
2023-03-26T20:36:54.062Z,13.10
2023-03-26T20:39:22.283Z,8.63
2023-03-26T20:41:51.268Z,3.25
2023-03-26T20:44:21.225Z,8.33
2023-03-26T20:46:50.638Z,8.03
2023-03-26T20:49:22.090Z,8.20
2023-03-26T20:51:49.908Z,10.63
2023-03-26T20:54:20.237Z,8.60
2023-03-26T20:56:49.077Z,12.03
2023-03-26T20:59:22.385Z,10.10
2023-03-26T21:01:51.159Z,4.23
2023-03-26T21:04:20.848Z,9.23
2023-03-26T21:06:49.282Z,7.40
2023-03-26T21:09:19.337Z,8.50
2023-03-26T21:11:53.809Z,8.90
2023-03-26T21:14:25.115Z,11.90
2023-03-26T21:16:53.395Z,9.57
2023-03-26T21:19:23.434Z,9.75
2023-03-26T21:22:04.687Z,3.63
2023-03-26T21:24:50.720Z,7.93
2023-03-26T21:27:26.430Z,8.10
2023-03-26T21:29:55.079Z,8.17
2023-03-26T21:32:24.351Z,9.07
2023-03-26T21:37:25.674Z,10.80
2023-03-26T21:39:53.793Z,9.35
2023-03-26T21:42:22.007Z,7.72
2023-03-26T21:44:50.572Z,10.23
2023-03-26T21:47:18.696Z,6.38
2023-03-26T21:49:46.898Z,6.72
2023-03-26T21:52:16.454Z,7.93
2023-03-26T21:54:44.736Z,6.17
2023-03-26T21:57:25.351Z,4.80
2023-03-26T22:00:07.420Z,8.27
2023-03-26T22:02:44.023Z,10.93
2023-03-26T22:05:16.246Z,7.70
2023-03-26T22:07:53.922Z,4.80
2023-03-26T22:10:21.997Z,7.00
2023-03-26T22:12:49.921Z,8.07
2023-03-26T22:15:19.223Z,6.43
2023-03-26T22:17:53.624Z,6.80
2023-03-26T22:20:24.516Z,9.30
2023-03-26T22:22:55.247Z,9.63
2023-03-26T22:25:24.524Z,7.53
2023-03-26T22:27:52.778Z,5.00
2023-03-26T22:30:21.850Z,5.55
2023-03-26T22:32:50.210Z,6.17
2023-03-26T22:35:18.165Z,8.00
2023-03-26T22:37:46.013Z,7.22
2023-03-26T22:40:15.207Z,5.67
2023-03-26T22:42:43.206Z,8.87
2023-03-26T22:45:12.414Z,8.63
2023-03-26T22:47:40.892Z,12.83
2023-03-26T22:50:09.870Z,8.98
2023-03-26T22:52:39.689Z,5.87
2023-03-26T22:55:08.706Z,6.13
2023-03-26T22:57:37.702Z,9.73
2023-03-26T23:00:16.181Z,3.70
2023-03-26T23:02:45.814Z,6.93
2023-03-26T23:05:13.919Z,7.67
2023-03-26T23:07:42.510Z,5.93
2023-03-26T23:10:11.584Z,4.70
2023-03-26T23:12:41.393Z,4.27
2023-03-26T23:15:10.524Z,4.50
2023-03-26T23:17:38.615Z,3.47
2023-03-26T23:20:14.633Z,10.25
2023-03-26T23:22:44.059Z,17.03
2023-03-26T23:25:12.606Z,3.53
2023-03-26T23:27:41.706Z,6.07
2023-03-26T23:30:11.749Z,7.27
2023-03-26T23:32:39.621Z,7.60
2023-03-26T23:35:08.310Z,6.60
2023-03-26T23:37:36.785Z,8.30
2023-03-26T23:40:09.887Z,7.05
2023-03-26T23:42:38.318Z,5.73
2023-03-26T23:45:09.014Z,2.70
2023-03-26T23:47:37.373Z,7.23
2023-03-26T23:50:06.298Z,8.60
2023-03-26T23:55:01.576Z,5.13
2023-03-26T23:57:30.479Z,4.53
2023-03-26T23:59:58.416Z,6.70
